Hagerstown Regional Richard A Henson Field Hagerstown US
ICAO: KHGR
IATA: HGR
Category: Medium
Scheduled Services: No

Elevation: 703 ft
TransAlt. 18000 ft.

Airport Communications:
ASOS:126.375
WASHINGTON CNTR:134.15
CTAF:120.3
GND:121.9
AR OPS:32.3
LEESBURG RDO:109.8
TWR:120.3
UNICOM:122.95

KHGR Zoom In..

Runways:

(A) RW 02 length 3165 ft width 100 ft
---- / hdg 26

(B) RW 09 length 7000 ft width 150 ft
ILS 111.90 / hdg 92

(C) RW 20 length 3165 ft width 100 ft
---- / hdg 206

(D) RW 27 length 7000 ft width 150 ft
ILS 111.90 / hdg 272

Location; KHGR
Day. 23 / Time. 09.53 Zulu
* Altimeter: 29.91
* Temperature: 22° c. 71.6°f.
* Wind from: 000° Speed 00 kn.
Dewpoint: 21° c.
Visibility: 4 Statute Miles.
Clouds: Broken 2000 ft.
Clouds: Overcast 2600 ft.
Conditions: Light Rain.Conditions: Mist.

KHGR 230953Z AUTO 00000KT 4SM -RA BR BKN020 OVC026 22/21 A2991 RMK AO2 SLP133 P0004 T02220206


Wind - Calm.

 
 
jpsmedia.com for Web Design worldairports.se 2018   terms of use